sensor_id;sensor_type;location;lat;lon;timestamp;temperature;humidity
39881;DHT22;25554;44.954;10.068;2023-05-01T10:02:50;19.40;99.90
39881;DHT22;25554;44.954;10.068;2023-05-01T10:05:16;18.40;99.90
39881;DHT22;25554;44.954;10.068;2023-05-01T10:10:22;19.20;99.90
39881;DHT22;25554;44.954;10.068;2023-05-01T10:12:48;23.30;99.90
39881;DHT22;25554;44.954;10.068;2023-05-01T10:15:14;19.20;99.90
39881;DHT22;25554;44.954;10.068;2023-05-01T10:17:41;19.20;99.90
39881;DHT22;25554;44.954;10.068;2023-05-01T10:20:09;19.20;99.90
39881;DHT22;25554;44.954;10.068;2023-05-01T10:22:36;19.30;99.90
39881;DHT22;25554;44.954;10.068;2023-05-01T10:25:02;19.20;99.90
39881;DHT22;25554;44.954;10.068;2023-05-01T10:27:29;19.40;99.90
39881;DHT22;25554;44.954;10.068;2023-05-01T10:29:55;19.50;99.90
39881;DHT22;25554;44.954;10.068;2023-05-01T10:32:21;19.50;99.90
39881;DHT22;25554;44.954;10.068;2023-05-01T10:34:51;19.60;99.90
39881;DHT22;25554;44.954;10.068;2023-05-01T10:37:30;19.50;99.90
39881;DHT22;25554;44.954;10.068;2023-05-01T10:39:58;19.50;99.90
39881;DHT22;25554;44.954;10.068;2023-05-01T10:42:24;19.40;99.90
39881;DHT22;25554;44.954;10.068;2023-05-01T10:44:50;19.40;99.90
39881;DHT22;25554;44.954;10.068;2023-05-01T10:52:29;19.30;99.90
39881;DHT22;25554;44.954;10.068;2023-05-01T10:55:30;19.20;99.90
39881;DHT22;25554;44.954;10.068;2023-05-01T10:57:56;22.60;99.90
39881;DHT22;25554;44.954;10.068;2023-05-01T11:00:22;19.00;99.90
39881;DHT22;25554;44.954;10.068;2023-05-01T11:02:48;19.00;99.90
39881;DHT22;25554;44.954;10.068;2023-05-01T11:05:14;19.00;99.90
39881;DHT22;25554;44.954;10.068;2023-05-01T11:07:40;18.90;99.90
39881;DHT22;25554;44.954;10.068;2023-05-01T11:10:28;18.90;99.90
39881;DHT22;25554;44.954;10.068;2023-05-01T11:12:53;18.90;99.90
39881;DHT22;25554;44.954;10.068;2023-05-01T11:17:55;18.90;99.90
39881;DHT22;25554;44.954;10.068;2023-05-01T11:22:52;18.90;99.90
39881;DHT22;25554;44.954;10.068;2023-05-01T11:25:18;19.00;99.90
39881;DHT22;25554;44.954;10.068;2023-05-01T11:27:49;19.00;99.90
39881;DHT22;25554;44.954;10.068;2023-05-01T11:32:42;19.10;99.90
39881;DHT22;25554;44.954;10.068;2023-05-01T11:35:14;19.00;99.90
39881;DHT22;25554;44.954;10.068;2023-05-01T11:37:41;19.10;99.90
39881;DHT22;25554;44.954;10.068;2023-05-01T11:42:50;19.20;99.90
39881;DHT22;25554;44.954;10.068;2023-05-01T11:45:17;19.20;99.90
39881;DHT22;25554;44.954;10.068;2023-05-01T11:47:43;19.10;99.90
39881;DHT22;25554;44.954;10.068;2023-05-01T11:50:10;19.00;99.90
39881;DHT22;25554;44.954;10.068;2023-05-01T11:55:08;18.90;99.90
39881;DHT22;25554;44.954;10.068;2023-05-01T11:57:45;18.90;99.90
39881;DHT22;25554;44.954;10.068;2023-05-01T12:00:12;18.90;99.90
39881;DHT22;25554;44.954;10.068;2023-05-01T12:02:40;18.80;99.90
39881;DHT22;25554;44.954;10.068;2023-05-01T12:05:13;21.00;99.90
39881;DHT22;25554;44.954;10.068;2023-05-01T12:07:39;18.50;99.90
39881;DHT22;25554;44.954;10.068;2023-05-01T12:10:05;18.50;99.90
39881;DHT22;25554;44.954;10.068;2023-05-01T12:12:31;18.50;99.90
39881;DHT22;25554;44.954;10.068;2023-05-01T12:14:57;18.50;99.90
39881;DHT22;25554;44.954;10.068;2023-05-01T12:17:23;18.40;99.90
39881;DHT22;25554;44.954;10.068;2023-05-01T12:19:49;18.40;99.90
39881;DHT22;25554;44.954;10.068;2023-05-01T12:22:16;18.50;99.90
39881;DHT22;25554;44.954;10.068;2023-05-01T12:24:49;18.50;99.90
39881;DHT22;25554;44.954;10.068;2023-05-01T12:27:16;15.60;99.90
39881;DHT22;25554;44.954;10.068;2023-05-01T12:29:42;18.60;99.90
39881;DHT22;25554;44.954;10.068;2023-05-01T12:32:15;18.50;99.90
39881;DHT22;25554;44.954;10.068;2023-05-01T12:34:41;18.40;99.90
39881;DHT22;25554;44.954;10.068;2023-05-01T12:37:08;18.30;99.90
39881;DHT22;25554;44.954;10.068;2023-05-01T12:39:37;18.30;99.90
39881;DHT22;25554;44.954;10.068;2023-05-01T12:42:10;15.20;99.90
39881;DHT22;25554;44.954;10.068;2023-05-01T12:44:36;18.20;99.90
39881;DHT22;25554;44.954;10.068;2023-05-01T12:47:04;18.10;99.90
39881;DHT22;25554;44.954;10.068;2023-05-01T12:49:30;18.10;99.90
39881;DHT22;25554;44.954;10.068;2023-05-01T12:51:58;18.30;99.90
39881;DHT22;25554;44.954;10.068;2023-05-01T12:54:35;18.30;99.90
39881;DHT22;25554;44.954;10.068;2023-05-01T12:59:30;18.40;99.90
39881;DHT22;25554;44.954;10.068;2023-05-01T13:01:59;18.40;99.90
39881;DHT22;25554;44.954;10.068;2023-05-01T13:04:26;18.40;99.90
39881;DHT22;25554;44.954;10.068;2023-05-01T13:06:53;18.30;99.90
39881;DHT22;25554;44.954;10.068;2023-05-01T13:09:22;18.40;99.90
39881;DHT22;25554;44.954;10.068;2023-05-01T13:12:01;18.30;99.90
39881;DHT22;25554;44.954;10.068;2023-05-01T13:14:39;18.30;99.90
39881;DHT22;25554;44.954;10.068;2023-05-01T13:17:06;18.30;99.90
39881;DHT22;25554;44.954;10.068;2023-05-01T13:19:33;18.10;99.90
39881;DHT22;25554;44.954;10.068;2023-05-01T13:21:59;18.00;99.90
39881;DHT22;25554;44.954;10.068;2023-05-01T13:24:38;18.00;99.90
39881;DHT22;25554;44.954;10.068;2023-05-01T13:27:04;17.90;99.90
39881;DHT22;25554;44.954;10.068;2023-05-01T13:29:31;17.80;99.90
39881;DHT22;25554;44.954;10.068;2023-05-01T13:31:57;17.80;99.90
39881;DHT22;25554;44.954;10.068;2023-05-01T13:34:27;17.80;99.90
39881;DHT22;25554;44.954;10.068;2023-05-01T13:36:54;17.70;99.90
39881;DHT22;25554;44.954;10.068;2023-05-01T13:39:20;17.60;99.90
39881;DHT22;25554;44.954;10.068;2023-05-01T13:41:46;17.50;99.90
39881;DHT22;25554;44.954;10.068;2023-05-01T13:44:12;17.60;99.90
39881;DHT22;25554;44.954;10.068;2023-05-01T13:46:40;17.50;99.90
39881;DHT22;25554;44.954;10.068;2023-05-01T13:49:07;17.50;99.90
39881;DHT22;25554;44.954;10.068;2023-05-01T13:51:35;17.50;99.90
39881;DHT22;25554;44.954;10.068;2023-05-01T13:54:03;17.50;99.90
39881;DHT22;25554;44.954;10.068;2023-05-01T13:56:29;17.40;99.90
39881;DHT22;25554;44.954;10.068;2023-05-01T13:58:59;17.40;99.90
39881;DHT22;25554;44.954;10.068;2023-05-01T14:01:26;17.50;99.90
39881;DHT22;25554;44.954;10.068;2023-05-01T14:03:53;17.50;99.90
39881;DHT22;25554;44.954;10.068;2023-05-01T14:06:21;17.40;99.90
39881;DHT22;25554;44.954;10.068;2023-05-01T14:08:51;16.00;99.90
39881;DHT22;25554;44.954;10.068;2023-05-01T14:11:17;17.40;99.90
39881;DHT22;25554;44.954;10.068;2023-05-01T14:13:45;17.30;99.90
39881;DHT22;25554;44.954;10.068;2023-05-01T14:16:25;17.30;99.90
39881;DHT22;25554;44.954;10.068;2023-05-01T14:18:52;17.30;99.90
39881;DHT22;25554;44.954;10.068;2023-05-01T14:21:20;17.20;99.90
39881;DHT22;25554;44.954;10.068;2023-05-01T14:23:47;17.20;99.90
39881;DHT22;25554;44.954;10.068;2023-05-01T14:26:16;17.10;99.90
39881;DHT22;25554;44.954;10.068;2023-05-01T14:28:42;17.00;99.90
39881;DHT22;25554;44.954;10.068;2023-05-01T14:31:14;17.00;99.90
39881;DHT22;25554;44.954;10.068;2023-05-01T14:33:41;16.90;99.90
39881;DHT22;25554;44.954;10.068;2023-05-01T14:36:08;16.90;99.90
39881;DHT22;25554;44.954;10.068;2023-05-01T14:38:34;16.90;99.90
39881;DHT22;25554;44.954;10.068;2023-05-01T14:41:04;16.80;99.90
39881;DHT22;25554;44.954;10.068;2023-05-01T14:43:31;16.80;99.90
39881;DHT22;25554;44.954;10.068;2023-05-01T14:45:58;16.70;99.90
39881;DHT22;25554;44.954;10.068;2023-05-01T14:48:24;16.80;99.90
39881;DHT22;25554;44.954;10.068;2023-05-01T14:50:51;16.80;99.90
39881;DHT22;25554;44.954;10.068;2023-05-01T14:53:17;16.80;99.90
39881;DHT22;25554;44.954;10.068;2023-05-01T14:55:43;16.70;99.90
39881;DHT22;25554;44.954;10.068;2023-05-01T14:58:09;16.70;99.90
39881;DHT22;25554;44.954;10.068;2023-05-01T15:00:35;16.70;99.90
39881;DHT22;25554;44.954;10.068;2023-05-01T15:03:01;16.60;99.90
39881;DHT22;25554;44.954;10.068;2023-05-01T15:05:28;16.60;99.90
39881;DHT22;25554;44.954;10.068;2023-05-01T15:07:54;12.90;99.90
39881;DHT22;25554;44.954;10.068;2023-05-01T15:10:28;16.60;99.90
39881;DHT22;25554;44.954;10.068;2023-05-01T15:12:56;16.60;99.90
39881;DHT22;25554;44.954;10.068;2023-05-01T15:15:22;16.50;99.90
39881;DHT22;25554;44.954;10.068;2023-05-01T15:17:48;16.50;99.90
39881;DHT22;25554;44.954;10.068;2023-05-01T15:20:14;16.50;99.90
39881;DHT22;25554;44.954;10.068;2023-05-01T15:22:40;16.50;99.90
39881;DHT22;25554;44.954;10.068;2023-05-01T15:25:07;16.40;99.90
39881;DHT22;25554;44.954;10.068;2023-05-01T15:27:34;16.40;99.90
39881;DHT22;25554;44.954;10.068;2023-05-01T15:30:00;16.30;99.90
39881;DHT22;25554;44.954;10.068;2023-05-01T15:34:53;16.10;99.90
39881;DHT22;25554;44.954;10.068;2023-05-01T15:37:22;16.10;99.90
39881;DHT22;25554;44.954;10.068;2023-05-01T15:39:51;16.20;99.90
39881;DHT22;25554;44.954;10.068;2023-05-01T15:42:17;12.90;99.90
39881;DHT22;25554;44.954;10.068;2023-05-01T15:44:44;16.10;99.90
39881;DHT22;25554;44.954;10.068;2023-05-01T15:47:10;16.10;99.90
39881;DHT22;25554;44.954;10.068;2023-05-01T15:49:36;16.10;99.90
39881;DHT22;25554;44.954;10.068;2023-05-01T15:52:02;16.00;99.90
39881;DHT22;25554;44.954;10.068;2023-05-01T15:54:28;16.00;99.90
39881;DHT22;25554;44.954;10.068;2023-05-01T15:56:55;15.90;99.90
39881;DHT22;25554;44.954;10.068;2023-05-01T15:59:21;15.80;99.90
39881;DHT22;25554;44.954;10.068;2023-05-01T16:01:47;15.80;99.90
39881;DHT22;25554;44.954;10.068;2023-05-01T16:04:14;15.70;99.90
39881;DHT22;25554;44.954;10.068;2023-05-01T16:06:40;19.20;99.90
39881;DHT22;25554;44.954;10.068;2023-05-01T16:09:06;16.70;99.90
39881;DHT22;25554;44.954;10.068;2023-05-01T16:11:32;15.60;99.90
39881;DHT22;25554;44.954;10.068;2023-05-01T16:13:59;15.60;99.90
39881;DHT22;25554;44.954;10.068;2023-05-01T16:16:26;15.60;99.90
39881;DHT22;25554;44.954;10.068;2023-05-01T16:18:52;15.60;99.90
39881;DHT22;25554;44.954;10.068;2023-05-01T16:21:20;15.60;99.90
39881;DHT22;25554;44.954;10.068;2023-05-01T16:23:46;15.50;99.90
39881;DHT22;25554;44.954;10.068;2023-05-01T16:26:12;15.50;99.90
39881;DHT22;25554;44.954;10.068;2023-05-01T16:28:38;15.50;99.90
39881;DHT22;25554;44.954;10.068;2023-05-01T16:31:06;15.50;99.90
39881;DHT22;25554;44.954;10.068;2023-05-01T16:33:33;15.50;99.90
39881;DHT22;25554;44.954;10.068;2023-05-01T16:35:59;15.50;99.90
39881;DHT22;25554;44.954;10.068;2023-05-01T16:38:25;15.50;99.90
39881;DHT22;25554;44.954;10.068;2023-05-01T16:40:52;15.40;99.90
39881;DHT22;25554;44.954;10.068;2023-05-01T16:43:20;15.40;99.90
39881;DHT22;25554;44.954;10.068;2023-05-01T16:45:46;14.00;99.90
39881;DHT22;25554;44.954;10.068;2023-05-01T16:48:21;15.30;99.90
39881;DHT22;25554;44.954;10.068;2023-05-01T16:50:48;15.40;99.90
39881;DHT22;25554;44.954;10.068;2023-05-01T16:53:14;16.70;99.90
39881;DHT22;25554;44.954;10.068;2023-05-01T16:55:40;15.30;99.90
39881;DHT22;25554;44.954;10.068;2023-05-01T16:58:06;15.30;99.90
39881;DHT22;25554;44.954;10.068;2023-05-01T17:00:32;15.30;99.90
39881;DHT22;25554;44.954;10.068;2023-05-01T17:02:58;15.30;99.90
39881;DHT22;25554;44.954;10.068;2023-05-01T17:05:25;15.20;99.90
39881;DHT22;25554;44.954;10.068;2023-05-01T17:07:51;15.20;99.90
39881;DHT22;25554;44.954;10.068;2023-05-01T17:10:17;15.20;99.90
39881;DHT22;25554;44.954;10.068;2023-05-01T17:12:43;15.20;99.90
39881;DHT22;25554;44.954;10.068;2023-05-01T17:15:09;15.20;99.90
39881;DHT22;25554;44.954;10.068;2023-05-01T17:17:36;15.10;99.90
39881;DHT22;25554;44.954;10.068;2023-05-01T17:20:05;15.10;99.90
39881;DHT22;25554;44.954;10.068;2023-05-01T17:22:32;15.10;99.90
39881;DHT22;25554;44.954;10.068;2023-05-01T17:24:59;15.10;99.90
39881;DHT22;25554;44.954;10.068;2023-05-01T17:27:27;15.10;99.90
39881;DHT22;25554;44.954;10.068;2023-05-01T17:29:53;15.00;99.90
39881;DHT22;25554;44.954;10.068;2023-05-01T17:32:19;15.00;99.90
39881;DHT22;25554;44.954;10.068;2023-05-01T17:34:45;14.90;99.90
39881;DHT22;25554;44.954;10.068;2023-05-01T17:37:11;14.90;99.90
39881;DHT22;25554;44.954;10.068;2023-05-01T17:39:38;14.80;99.90
39881;DHT22;25554;44.954;10.068;2023-05-01T17:42:04;14.70;99.90
39881;DHT22;25554;44.954;10.068;2023-05-01T17:44:30;14.70;99.90
39881;DHT22;25554;44.954;10.068;2023-05-01T17:46:56;14.70;99.90
39881;DHT22;25554;44.954;10.068;2023-05-01T17:49:22;14.70;99.90
39881;DHT22;25554;44.954;10.068;2023-05-01T17:51:48;14.60;99.90
39881;DHT22;25554;44.954;10.068;2023-05-01T17:54:14;14.60;99.90
39881;DHT22;25554;44.954;10.068;2023-05-01T17:56:42;14.60;99.90
39881;DHT22;25554;44.954;10.068;2023-05-01T17:59:09;14.60;99.90
39881;DHT22;25554;44.954;10.068;2023-05-01T18:01:35;14.60;99.90
39881;DHT22;25554;44.954;10.068;2023-05-01T18:04:01;14.50;99.90
39881;DHT22;25554;44.954;10.068;2023-05-01T18:06:27;14.50;99.90
39881;DHT22;25554;44.954;10.068;2023-05-01T18:08:53;14.50;99.90
39881;DHT22;25554;44.954;10.068;2023-05-01T18:11:19;14.50;99.90
39881;DHT22;25554;44.954;10.068;2023-05-01T18:13:45;14.60;99.90
39881;DHT22;25554;44.954;10.068;2023-05-01T18:16:13;14.60;99.90
39881;DHT22;25554;44.954;10.068;2023-05-01T18:18:39;14.60;99.90
39881;DHT22;25554;44.954;10.068;2023-05-01T18:21:06;14.50;99.90
39881;DHT22;25554;44.954;10.068;2023-05-01T18:23:33;14.40;99.90
39881;DHT22;25554;44.954;10.068;2023-05-01T18:25:59;14.40;99.90
39881;DHT22;25554;44.954;10.068;2023-05-01T18:28:25;14.30;99.90
39881;DHT22;25554;44.954;10.068;2023-05-01T18:30:51;13.40;99.90
39881;DHT22;25554;44.954;10.068;2023-05-01T18:33:19;14.10;99.90
39881;DHT22;25554;44.954;10.068;2023-05-01T18:35:46;14.10;99.90
39881;DHT22;25554;44.954;10.068;2023-05-01T18:38:12;14.10;99.90
39881;DHT22;25554;44.954;10.068;2023-05-01T18:40:38;14.20;99.90
39881;DHT22;25554;44.954;10.068;2023-05-01T18:43:04;14.10;99.90
39881;DHT22;25554;44.954;10.068;2023-05-01T18:45:31;14.10;99.90
39881;DHT22;25554;44.954;10.068;2023-05-01T18:47:58;14.10;99.90
39881;DHT22;25554;44.954;10.068;2023-05-01T18:50:27;14.10;99.90
39881;DHT22;25554;44.954;10.068;2023-05-01T18:53:39;14.00;99.90
39881;DHT22;25554;44.954;10.068;2023-05-01T18:55:41;14.00;99.90
39881;DHT22;25554;44.954;10.068;2023-05-01T18:58:07;14.00;99.90
39881;DHT22;25554;44.954;10.068;2023-05-01T19:00:33;13.90;99.90
39881;DHT22;25554;44.954;10.068;2023-05-01T19:02:59;13.90;99.90
39881;DHT22;25554;44.954;10.068;2023-05-01T19:05:25;13.90;99.90
39881;DHT22;25554;44.954;10.068;2023-05-01T19:07:51;13.90;99.90
39881;DHT22;25554;44.954;10.068;2023-05-01T19:10:19;13.80;99.90
39881;DHT22;25554;44.954;10.068;2023-05-01T19:12:45;13.80;99.90
39881;DHT22;25554;44.954;10.068;2023-05-01T19:15:12;13.80;99.90
39881;DHT22;25554;44.954;10.068;2023-05-01T19:17:38;13.80;99.90
39881;DHT22;25554;44.954;10.068;2023-05-01T19:20:04;13.70;99.90
39881;DHT22;25554;44.954;10.068;2023-05-01T19:22:30;13.70;99.90
39881;DHT22;25554;44.954;10.068;2023-05-01T19:24:56;13.70;99.90
39881;DHT22;25554;44.954;10.068;2023-05-01T19:27:22;13.60;99.90
39881;DHT22;25554;44.954;10.068;2023-05-01T19:29:50;13.60;99.90
39881;DHT22;25554;44.954;10.068;2023-05-01T19:32:17;13.60;99.90
39881;DHT22;25554;44.954;10.068;2023-05-01T19:34:43;13.60;99.90
39881;DHT22;25554;44.954;10.068;2023-05-01T19:37:09;13.60;99.90
39881;DHT22;25554;44.954;10.068;2023-05-01T19:39:35;13.50;99.90
39881;DHT22;25554;44.954;10.068;2023-05-01T19:42:01;13.60;99.90
39881;DHT22;25554;44.954;10.068;2023-05-01T19:44:28;13.60;99.90
39881;DHT22;25554;44.954;10.068;2023-05-01T19:46:54;13.60;99.90
39881;DHT22;25554;44.954;10.068;2023-05-01T19:49:20;13.50;99.90
39881;DHT22;25554;44.954;10.068;2023-05-01T19:51:46;13.50;99.90
39881;DHT22;25554;44.954;10.068;2023-05-01T19:54:12;13.60;99.90
39881;DHT22;25554;44.954;10.068;2023-05-01T19:56:38;13.60;99.90
39881;DHT22;25554;44.954;10.068;2023-05-01T19:59:04;13.70;99.90
39881;DHT22;25554;44.954;10.068;2023-05-01T20:01:30;13.70;99.90
39881;DHT22;25554;44.954;10.068;2023-05-01T20:03:56;13.60;99.90
39881;DHT22;25554;44.954;10.068;2023-05-01T20:06:22;13.60;99.90
39881;DHT22;25554;44.954;10.068;2023-05-01T20:08:48;13.60;99.90
39881;DHT22;25554;44.954;10.068;2023-05-01T20:11:15;13.60;99.90
39881;DHT22;25554;44.954;10.068;2023-05-01T20:13:41;13.60;99.90
39881;DHT22;25554;44.954;10.068;2023-05-01T20:16:07;13.60;99.90
39881;DHT22;25554;44.954;10.068;2023-05-01T20:18:34;13.60;99.90
39881;DHT22;25554;44.954;10.068;2023-05-01T20:21:00;13.60;99.90
39881;DHT22;25554;44.954;10.068;2023-05-01T20:23:26;13.50;99.90
39881;DHT22;25554;44.954;10.068;2023-05-01T20:25:53;13.50;99.90
39881;DHT22;25554;44.954;10.068;2023-05-01T20:28:19;13.40;99.90
39881;DHT22;25554;44.954;10.068;2023-05-01T20:30:46;13.40;99.90
39881;DHT22;25554;44.954;10.068;2023-05-01T20:33:12;13.40;99.90
39881;DHT22;25554;44.954;10.068;2023-05-01T20:35:38;13.30;99.90
39881;DHT22;25554;44.954;10.068;2023-05-01T20:38:05;13.30;99.90
39881;DHT22;25554;44.954;10.068;2023-05-01T20:40:31;13.40;99.90
39881;DHT22;25554;44.954;10.068;2023-05-01T20:42:58;13.30;99.90
39881;DHT22;25554;44.954;10.068;2023-05-01T20:45:25;13.40;99.90
39881;DHT22;25554;44.954;10.068;2023-05-01T20:47:51;13.30;99.90
39881;DHT22;25554;44.954;10.068;2023-05-01T20:50:18;13.30;99.90
39881;DHT22;25554;44.954;10.068;2023-05-01T20:52:44;13.20;99.90
39881;DHT22;25554;44.954;10.068;2023-05-01T20:55:10;13.20;99.90
39881;DHT22;25554;44.954;10.068;2023-05-01T20:57:36;13.20;99.90
39881;DHT22;25554;44.954;10.068;2023-05-01T21:00:03;13.20;99.90
39881;DHT22;25554;44.954;10.068;2023-05-01T21:02:29;13.10;99.90
39881;DHT22;25554;44.954;10.068;2023-05-01T21:04:56;13.00;99.90
39881;DHT22;25554;44.954;10.068;2023-05-01T21:07:22;12.90;99.90
39881;DHT22;25554;44.954;10.068;2023-05-01T21:09:48;12.90;99.90
39881;DHT22;25554;44.954;10.068;2023-05-01T21:12:14;12.90;99.90
39881;DHT22;25554;44.954;10.068;2023-05-01T21:14:40;12.90;99.90
39881;DHT22;25554;44.954;10.068;2023-05-01T21:17:09;12.80;99.90
39881;DHT22;25554;44.954;10.068;2023-05-01T21:19:42;12.80;99.90
39881;DHT22;25554;44.954;10.068;2023-05-01T21:22:15;12.80;99.90
39881;DHT22;25554;44.954;10.068;2023-05-01T21:24:42;12.80;99.90
39881;DHT22;25554;44.954;10.068;2023-05-01T21:27:09;12.80;99.90
39881;DHT22;25554;44.954;10.068;2023-05-01T21:29:37;12.90;99.90
39881;DHT22;25554;44.954;10.068;2023-05-01T21:32:03;12.90;99.90
39881;DHT22;25554;44.954;10.068;2023-05-01T21:34:29;12.90;99.90
39881;DHT22;25554;44.954;10.068;2023-05-01T21:36:55;12.90;99.90
39881;DHT22;25554;44.954;10.068;2023-05-01T21:39:21;12.90;99.90
39881;DHT22;25554;44.954;10.068;2023-05-01T21:41:49;13.00;99.90
39881;DHT22;25554;44.954;10.068;2023-05-01T21:44:15;13.00;99.90
39881;DHT22;25554;44.954;10.068;2023-05-01T21:46:42;13.00;99.90
39881;DHT22;25554;44.954;10.068;2023-05-01T21:49:11;13.00;99.90
39881;DHT22;25554;44.954;10.068;2023-05-01T21:51:38;12.90;99.90
39881;DHT22;25554;44.954;10.068;2023-05-01T21:54:04;14.30;99.90
39881;DHT22;25554;44.954;10.068;2023-05-01T21:56:30;12.90;99.90
39881;DHT22;25554;44.954;10.068;2023-05-01T21:58:58;12.90;99.90
39881;DHT22;25554;44.954;10.068;2023-05-01T22:01:25;12.90;99.90
39881;DHT22;25554;44.954;10.068;2023-05-01T22:03:51;13.00;99.90
39881;DHT22;25554;44.954;10.068;2023-05-01T22:06:17;12.90;99.90
39881;DHT22;25554;44.954;10.068;2023-05-01T22:08:43;12.90;99.90
39881;DHT22;25554;44.954;10.068;2023-05-01T22:11:10;12.90;99.90
39881;DHT22;25554;44.954;10.068;2023-05-01T22:13:36;12.90;99.90
39881;DHT22;25554;44.954;10.068;2023-05-01T22:16:02;12.90;99.90
39881;DHT22;25554;44.954;10.068;2023-05-01T22:18:28;12.90;99.90
39881;DHT22;25554;44.954;10.068;2023-05-01T22:20:54;12.90;99.90
39881;DHT22;25554;44.954;10.068;2023-05-01T22:23:20;12.90;99.90
39881;DHT22;25554;44.954;10.068;2023-05-01T22:25:46;12.90;99.90
39881;DHT22;25554;44.954;10.068;2023-05-01T22:28:12;12.90;99.90
39881;DHT22;25554;44.954;10.068;2023-05-01T22:30:38;12.80;99.90
39881;DHT22;25554;44.954;10.068;2023-05-01T22:33:04;12.80;99.90
39881;DHT22;25554;44.954;10.068;2023-05-01T22:35:30;12.80;99.90
39881;DHT22;25554;44.954;10.068;2023-05-01T22:37:57;12.90;99.90
39881;DHT22;25554;44.954;10.068;2023-05-01T22:40:23;12.80;99.90
39881;DHT22;25554;44.954;10.068;2023-05-01T22:42:49;12.90;99.90
39881;DHT22;25554;44.954;10.068;2023-05-01T22:45:15;15.40;99.90
39881;DHT22;25554;44.954;10.068;2023-05-01T22:47:41;12.80;99.90
39881;DHT22;25554;44.954;10.068;2023-05-01T22:50:07;14.60;99.90
39881;DHT22;25554;44.954;10.068;2023-05-01T22:52:34;12.80;99.90
39881;DHT22;25554;44.954;10.068;2023-05-01T22:55:01;12.80;99.90
39881;DHT22;25554;44.954;10.068;2023-05-01T22:57:27;12.70;99.90
39881;DHT22;25554;44.954;10.068;2023-05-01T22:59:53;12.70;99.90
39881;DHT22;25554;44.954;10.068;2023-05-01T23:02:19;12.70;99.90
39881;DHT22;25554;44.954;10.068;2023-05-01T23:04:45;12.70;99.90
39881;DHT22;25554;44.954;10.068;2023-05-01T23:07:12;12.70;99.90
39881;DHT22;25554;44.954;10.068;2023-05-01T23:09:38;12.70;99.90
39881;DHT22;25554;44.954;10.068;2023-05-01T23:12:05;12.70;99.90
39881;DHT22;25554;44.954;10.068;2023-05-01T23:14:32;12.70;99.90
39881;DHT22;25554;44.954;10.068;2023-05-01T23:16:59;12.70;99.90
39881;DHT22;25554;44.954;10.068;2023-05-01T23:19:25;12.70;99.90
39881;DHT22;25554;44.954;10.068;2023-05-01T23:22:05;12.60;99.90
39881;DHT22;25554;44.954;10.068;2023-05-01T23:24:44;13.60;99.90
39881;DHT22;25554;44.954;10.068;2023-05-01T23:27:16;12.60;99.90
39881;DHT22;25554;44.954;10.068;2023-05-01T23:29:51;12.60;99.90
39881;DHT22;25554;44.954;10.068;2023-05-01T23:32:24;12.60;99.90
39881;DHT22;25554;44.954;10.068;2023-05-01T23:34:51;12.60;99.90
39881;DHT22;25554;44.954;10.068;2023-05-01T23:37:18;12.70;99.90
39881;DHT22;25554;44.954;10.068;2023-05-01T23:39:45;12.60;99.90
39881;DHT22;25554;44.954;10.068;2023-05-01T23:42:12;12.60;99.90
39881;DHT22;25554;44.954;10.068;2023-05-01T23:44:38;12.60;99.90
39881;DHT22;25554;44.954;10.068;2023-05-01T23:47:04;12.60;99.90
39881;DHT22;25554;44.954;10.068;2023-05-01T23:49:30;12.50;99.90
39881;DHT22;25554;44.954;10.068;2023-05-01T23:51:56;12.60;99.90
39881;DHT22;25554;44.954;10.068;2023-05-01T23:54:22;12.50;99.90
39881;DHT22;25554;44.954;10.068;2023-05-01T23:56:48;12.50;99.90
39881;DHT22;25554;44.954;10.068;2023-05-01T23:59:14;12.50;99.90
